Time;durP1;ratioP1;P1;durP2;ratioP2;P2;SDS_P1;SDS_P2;PMS_P1;PMS_P2;Temp;Humidity;BMP_temperature;BMP_pressure;BME280_temperature;BME280_humidity;BME280_pressure;Samples;Min_cycle;Max_cycle;Signal;HPM_P1;HPM_P2
2022/11/14 00:02:01;;;;;;;47.88;28.77;;;6.70;99.90;;;;;;7371297;19;20048;-46
2022/11/14 00:04:48;;;;;;;43.95;26.67;;;6.80;99.90;;;;;;7369846;19;20015;-51
2022/11/14 00:07:34;;;;;;;42.97;27.17;;;6.80;99.90;;;;;;7373171;19;20490;-50
2022/11/14 00:10:19;;;;;;;44.97;28.10;;;6.80;99.90;;;;;;7369588;19;20022;-51
2022/11/14 00:13:03;;;;;;;41.33;26.98;;;6.80;99.90;;;;;;7370284;19;20033;-49
2022/11/14 00:15:53;;;;;;;43.92;26.77;;;6.80;99.90;;;;;;7368151;19;20029;-47
2022/11/14 00:18:37;;;;;;;43.85;26.58;;;6.80;99.90;;;;;;7369952;19;20041;-48
2022/11/14 00:21:22;;;;;;;41.20;26.23;;;6.80;99.90;;;;;;7372810;19;20783;-48
2022/11/14 00:24:08;;;;;;;44.47;26.60;;;6.80;99.90;;;;;;7370037;19;20017;-50
2022/11/14 00:26:53;;;;;;;41.60;25.42;;;6.80;99.90;;;;;;7372276;19;20565;-50
2022/11/14 00:29:38;;;;;;;43.33;28.80;;;6.90;99.90;;;;;;7372010;19;20585;-47
2022/11/14 00:32:22;;;;;;;42.05;28.25;;;6.90;99.90;;;;;;7368688;19;20026;-48
2022/11/14 00:35:08;;;;;;;43.20;27.15;;;6.90;99.90;;;;;;7368634;19;20500;-52
2022/11/14 00:37:52;;;;;;;35.22;22.23;;;6.90;99.90;;;;;;7367325;19;20499;-51
2022/11/14 00:40:37;;;;;;;45.00;29.25;;;6.90;99.90;;;;;;7366949;19;20019;-52
2022/11/14 00:43:22;;;;;;;42.85;27.83;;;6.90;99.90;;;;;;7369757;19;20371;-47
2022/11/14 00:46:07;;;;;;;43.60;28.95;;;6.90;99.90;;;;;;7363040;19;20536;-50
2022/11/14 00:48:52;;;;;;;43.60;28.00;;;6.90;99.90;;;;;;7366941;19;20019;-51
2022/11/14 00:51:36;;;;;;;42.13;28.17;;;6.90;99.90;;;;;;7368777;19;20014;-48
2022/11/14 00:54:21;;;;;;;39.55;25.45;;;6.90;99.90;;;;;;7369822;19;20378;-46
2022/11/14 00:57:05;;;;;;;42.70;28.73;;;6.80;99.90;;;;;;7367338;19;20021;-48
2022/11/14 00:59:50;;;;;;;42.55;25.83;;;6.90;99.90;;;;;;7375170;19;20360;-39
2022/11/14 01:02:35;;;;;;;45.95;28.92;;;6.80;99.90;;;;;;7377111;19;20025;-48
2022/11/14 01:05:20;;;;;;;45.25;29.38;;;6.80;99.90;;;;;;7371657;19;20026;-52
2022/11/14 01:08:04;;;;;;;50.33;31.40;;;6.80;99.90;;;;;;7378685;19;20034;-40
2022/11/14 01:10:50;;;;;;;50.15;32.47;;;6.80;99.90;;;;;;7376200;19;20029;-39
2022/11/14 01:13:35;;;;;;;50.15;32.25;;;6.80;99.90;;;;;;7373639;19;20031;-51
2022/11/14 01:16:20;;;;;;;50.70;29.80;;;6.70;99.90;;;;;;7375193;19;20018;-48
2022/11/14 01:19:05;;;;;;;49.58;31.52;;;6.70;99.90;;;;;;7376891;19;20452;-49
2022/11/14 01:21:50;;;;;;;51.03;31.52;;;6.70;99.90;;;;;;7378263;19;20701;-49
2022/11/14 01:24:35;;;;;;;53.17;33.10;;;6.70;99.90;;;;;;7376737;19;20029;-49
2022/11/14 01:27:20;;;;;;;51.25;32.03;;;6.60;99.90;;;;;;7379125;19;20018;-47
2022/11/14 01:30:05;;;;;;;54.35;32.08;;;6.70;99.90;;;;;;7377108;19;20025;-48
2022/11/14 01:32:50;;;;;;;47.25;26.33;;;6.60;99.90;;;;;;7378829;19;20570;-52
2022/11/14 01:35:37;;;;;;;52.72;33.42;;;6.60;99.90;;;;;;7372105;19;20078;-51
2022/11/14 01:38:22;;;;;;;54.75;34.63;;;6.60;99.90;;;;;;7373687;19;20014;-46
2022/11/14 01:41:06;;;;;;;49.67;29.02;;;6.60;99.90;;;;;;7373874;19;20014;-47
2022/11/14 01:43:50;;;;;;;49.17;31.73;;;6.60;99.90;;;;;;7375516;19;20014;-47
2022/11/14 01:46:39;;;;;;;51.92;33.70;;;6.60;99.90;;;;;;7370740;19;20082;-49
2022/11/14 01:49:30;;;;;;;52.45;32.75;;;6.50;99.90;;;;;;7377799;19;20482;-48
2022/11/14 01:52:24;;;;;;;47.38;29.95;;;6.50;99.90;;;;;;7375409;19;20032;-49
2022/11/14 01:55:09;;;;;;;55.45;31.73;;;6.40;99.90;;;;;;7373718;19;20022;-54
2022/11/14 01:57:55;;;;;;;54.10;31.85;;;6.40;99.90;;;;;;7374450;19;20018;-51
2022/11/14 02:00:41;;;;;;;51.30;32.33;;;6.40;99.90;;;;;;7371312;19;20019;-49
2022/11/14 02:03:26;;;;;;;54.30;34.08;;;6.30;99.90;;;;;;7374396;19;20457;-51
2022/11/14 02:06:14;;;;;;;54.78;33.70;;;6.30;99.90;;;;;;7375178;19;20793;-50
2022/11/14 02:09:02;;;;;;;57.47;32.22;;;6.30;99.90;;;;;;7377813;19;20031;-51
2022/11/14 02:11:47;;;;;;;58.50;35.75;;;6.30;99.90;;;;;;7374545;19;20520;-51
2022/11/14 02:14:34;;;;;;;61.15;37.72;;;6.40;99.90;;;;;;7373306;19;20465;-38
2022/11/14 02:17:20;;;;;;;62.88;37.47;;;6.30;99.90;;;;;;7373307;19;20014;-50
2022/11/14 02:20:13;;;;;;;62.15;35.92;;;6.40;99.90;;;;;;7377340;19;20346;-47
2022/11/14 02:22:58;;;;;;;65.90;36.33;;;6.40;99.90;;;;;;7372093;19;20019;-50
2022/11/14 02:25:43;;;;;;;56.00;28.30;;;6.40;99.90;;;;;;7369354;19;20354;-49
2022/11/14 02:28:28;;;;;;;62.80;36.63;;;6.40;99.90;;;;;;7378084;19;20082;-39
2022/11/14 02:31:13;;;;;;;56.80;32.78;;;6.40;99.90;;;;;;7375552;19;20019;-39
2022/11/14 02:33:58;;;;;;;58.70;36.58;;;6.40;99.90;;;;;;7374827;19;20029;-51
2022/11/14 02:36:43;;;;;;;62.15;36.65;;;6.40;99.90;;;;;;7372905;19;20488;-38
2022/11/14 02:39:27;;;;;;;58.45;36.10;;;6.40;99.90;;;;;;7376609;19;20095;-38
2022/11/14 02:42:12;;;;;;;55.30;30.83;;;6.40;99.90;;;;;;7374959;19;20022;-38
2022/11/14 02:44:57;;;;;;;63.88;36.83;;;6.40;99.90;;;;;;7372894;19;20041;-38
2022/11/14 02:47:42;;;;;;;69.93;40.08;;;6.40;99.90;;;;;;7372722;19;20018;-51
2022/11/14 02:50:28;;;;;;;64.50;35.90;;;6.40;99.90;;;;;;7374895;19;20544;-52
2022/11/14 02:53:13;;;;;;;65.22;36.88;;;6.40;99.90;;;;;;7374966;19;20014;-39
2022/11/14 02:55:57;;;;;;;66.60;38.85;;;6.40;99.90;;;;;;7374176;19;20484;-38
2022/11/14 02:58:42;;;;;;;61.40;37.13;;;6.40;99.90;;;;;;7373983;19;20026;-50
2022/11/14 03:01:27;;;;;;;55.78;31.23;;;6.40;99.90;;;;;;7376696;19;20035;-49
2022/11/14 03:04:11;;;;;;;60.75;34.72;;;6.40;99.90;;;;;;7373014;19;20386;-49
2022/11/14 03:06:56;;;;;;;65.40;38.20;;;6.40;99.90;;;;;;7374396;19;20023;-48
2022/11/14 03:09:41;;;;;;;64.07;35.10;;;6.40;99.90;;;;;;7371835;19;20026;-49
2022/11/14 03:12:26;;;;;;;60.88;35.88;;;6.40;99.90;;;;;;7367858;19;20461;-50
2022/11/14 03:15:11;;;;;;;54.65;32.70;;;6.50;99.90;;;;;;7373872;19;20029;-49
2022/11/14 03:17:56;;;;;;;59.90;37.00;;;6.50;99.90;;;;;;7368979;19;20812;-51
2022/11/14 03:20:41;;;;;;;62.10;37.65;;;6.40;99.90;;;;;;7372901;19;20046;-49
2022/11/14 03:23:25;;;;;;;64.85;37.53;;;6.50;99.90;;;;;;7367291;19;20467;-38
2022/11/14 03:26:12;;;;;;;64.97;38.85;;;6.40;99.90;;;;;;7375051;19;20022;-38
2022/11/14 03:28:57;;;;;;;59.45;36.85;;;6.40;99.90;;;;;;7370438;19;20065;-38
2022/11/14 03:31:41;;;;;;;59.75;36.05;;;6.40;99.90;;;;;;7373217;19;20041;-39
2022/11/14 03:34:27;;;;;;;60.03;36.13;;;6.40;99.90;;;;;;7370546;19;20021;-39
2022/11/14 03:37:11;;;;;;;63.63;39.45;;;6.40;99.90;;;;;;7373696;19;20018;-40
2022/11/14 03:39:56;;;;;;;68.53;38.42;;;6.30;99.90;;;;;;7373680;19;20014;-39
2022/11/14 03:42:41;;;;;;;59.20;37.60;;;6.30;99.90;;;;;;7371755;19;20039;-40
2022/11/14 03:45:25;;;;;;;57.28;33.22;;;6.30;99.90;;;;;;7373862;19;20048;-39
2022/11/14 03:48:10;;;;;;;54.53;34.00;;;6.30;99.90;;;;;;7370465;19;20373;-39
2022/11/14 03:50:56;;;;;;;61.20;35.42;;;6.30;99.90;;;;;;7371092;19;20021;-39
2022/11/14 03:53:40;;;;;;;60.05;36.90;;;6.30;99.90;;;;;;7372333;19;20561;-37
2022/11/14 03:56:25;;;;;;;57.42;34.75;;;6.30;99.90;;;;;;7371711;19;20041;-39
2022/11/14 03:59:10;;;;;;;58.10;35.35;;;6.30;99.90;;;;;;7371797;19;20079;-38
2022/11/14 04:01:55;;;;;;;45.75;28.67;;;6.30;99.90;;;;;;7370734;19;20028;-39
2022/11/14 04:04:40;;;;;;;62.90;36.50;;;6.30;99.90;;;;;;7372032;19;20037;-38
2022/11/14 04:07:24;;;;;;;64.97;37.20;;;6.20;99.90;;;;;;7373130;19;20021;-38
2022/11/14 04:10:09;;;;;;;58.60;34.97;;;6.30;99.90;;;;;;7373633;19;20360;-38
2022/11/14 04:12:53;;;;;;;65.70;38.28;;;6.20;99.90;;;;;;7372171;19;20078;-38
2022/11/14 04:15:39;;;;;;;58.92;35.53;;;6.20;99.90;;;;;;7372691;19;20502;-39
2022/11/14 04:18:24;;;;;;;59.33;34.50;;;6.20;99.90;;;;;;7370259;19;20521;-38
2022/11/14 04:21:09;;;;;;;64.80;37.08;;;6.20;99.90;;;;;;7372032;19;20383;-38
2022/11/14 04:23:54;;;;;;;67.25;40.13;;;6.20;99.90;;;;;;7369587;19;20018;-38
2022/11/14 04:26:39;;;;;;;56.28;33.72;;;6.20;99.90;;;;;;7368968;19;20019;-39
2022/11/14 04:29:24;;;;;;;51.67;31.20;;;6.30;99.90;;;;;;7372167;19;20681;-39
2022/11/14 04:32:08;;;;;;;58.47;36.50;;;6.30;99.90;;;;;;7372407;19;20018;-51
2022/11/14 04:34:53;;;;;;;57.65;35.15;;;6.30;99.90;;;;;;7371421;19;20704;-47
2022/11/14 04:37:38;;;;;;;60.80;36.40;;;6.30;99.90;;;;;;7377260;19;20402;-46
2022/11/14 04:40:22;;;;;;;54.70;34.47;;;6.30;99.90;;;;;;7375951;19;20025;-46
2022/11/14 04:43:07;;;;;;;57.50;32.10;;;6.30;99.90;;;;;;7378748;19;20967;-49
2022/11/14 04:45:51;;;;;;;57.92;36.58;;;6.30;99.90;;;;;;7374519;19;20025;-51
2022/11/14 04:48:36;;;;;;;56.30;34.78;;;6.30;99.90;;;;;;7375347;19;20580;-51
2022/11/14 04:51:21;;;;;;;59.33;34.55;;;6.30;99.90;;;;;;7378340;19;20015;-48
2022/11/14 04:54:05;;;;;;;62.72;37.65;;;6.30;99.90;;;;;;7378203;19;20019;-48
2022/11/14 04:56:50;;;;;;;61.03;36.97;;;6.30;99.90;;;;;;7377125;19;20023;-47
2022/11/14 04:59:35;;;;;;;58.20;36.38;;;6.30;99.90;;;;;;7380907;19;20483;-48
2022/11/14 05:02:19;;;;;;;55.35;35.00;;;6.30;99.90;;;;;;7380414;19;20018;-49
2022/11/14 05:05:04;;;;;;;56.88;35.60;;;6.30;99.90;;;;;;7374471;19;20216;-47
2022/11/14 05:07:49;;;;;;;53.15;33.33;;;6.30;99.90;;;;;;7379034;19;20014;-51
2022/11/14 05:10:34;;;;;;;57.53;36.67;;;6.30;99.90;;;;;;7377086;19;20023;-50
2022/11/14 05:13:18;;;;;;;54.72;31.40;;;6.40;99.90;;;;;;7377230;19;20090;-48
2022/11/14 05:16:03;;;;;;;58.95;36.47;;;6.40;99.90;;;;;;7374195;19;20581;-50
2022/11/14 05:18:48;;;;;;;59.88;36.47;;;6.30;99.90;;;;;;7375173;19;20023;-50
2022/11/14 05:21:33;;;;;;;60.70;37.47;;;6.40;99.90;;;;;;7377659;19;20029;-38
2022/11/14 05:24:18;;;;;;;59.83;35.75;;;6.30;99.90;;;;;;7374550;19;20372;-39
2022/11/14 05:27:04;;;;;;;59.22;35.28;;;6.40;99.90;;;;;;7379864;19;20015;-38
2022/11/14 05:29:49;;;;;;;54.30;35.42;;;6.30;99.90;;;;;;7373763;19;20015;-52
2022/11/14 05:32:33;;;;;;;57.25;35.42;;;6.40;99.90;;;;;;7377000;19;20018;-52
2022/11/14 05:35:18;;;;;;;56.88;36.08;;;6.30;99.90;;;;;;7376617;19;20018;-50
2022/11/14 05:38:03;;;;;;;58.75;36.20;;;6.30;99.90;;;;;;7376586;19;20025;-54
2022/11/14 05:40:47;;;;;;;56.00;35.10;;;6.40;99.90;;;;;;7375160;19;20015;-49
2022/11/14 05:43:32;;;;;;;56.97;34.40;;;6.40;99.90;;;;;;7375389;19;20367;-53
2022/11/14 05:46:17;;;;;;;59.63;35.03;;;6.30;99.90;;;;;;7374286;19;20490;-40
2022/11/14 05:49:02;;;;;;;58.03;33.45;;;6.30;99.90;;;;;;7373127;19;20031;-50
2022/11/14 05:51:47;;;;;;;59.55;36.78;;;6.30;99.90;;;;;;7373089;19;20109;-51
2022/11/14 05:54:31;;;;;;;59.05;36.67;;;6.30;99.90;;;;;;7373410;19;20022;-40
2022/11/14 05:57:16;;;;;;;60.15;36.60;;;6.30;99.90;;;;;;7375600;19;20039;-52
2022/11/14 06:00:01;;;;;;;62.75;35.80;;;6.30;99.90;;;;;;7374850;19;20018;-51
2022/11/14 06:02:46;;;;;;;60.28;37.83;;;6.20;99.90;;;;;;7374683;19;20019;-42
2022/11/14 06:05:33;;;;;;;60.13;35.60;;;6.30;99.90;;;;;;7371636;19;20383;-50
2022/11/14 06:08:17;;;;;;;57.92;33.53;;;6.20;99.90;;;;;;7377472;19;20018;-49
2022/11/14 06:11:14;;;;;;;62.22;37.00;;;6.20;99.90;;;;;;7376644;19;20060;-47
2022/11/14 06:13:58;;;;;;;63.53;38.55;;;6.10;99.90;;;;;;7374206;19;20030;-40
2022/11/14 06:16:43;;;;;;;58.78;36.28;;;6.10;99.90;;;;;;7373111;19;20105;-49
2022/11/14 06:19:28;;;;;;;58.70;33.90;;;6.10;99.90;;;;;;7373236;19;20462;-47
2022/11/14 06:22:13;;;;;;;65.15;37.97;;;6.00;99.90;;;;;;7377594;19;20057;-51
2022/11/14 06:24:57;;;;;;;67.10;38.90;;;6.00;99.90;;;;;;7373911;19;20420;-48
2022/11/14 06:27:43;;;;;;;64.93;36.83;;;6.00;99.90;;;;;;7376242;19;20351;-40
2022/11/14 06:30:28;;;;;;;64.13;38.17;;;6.00;99.90;;;;;;7375413;19;20106;-40
2022/11/14 06:33:12;;;;;;;68.95;37.72;;;6.00;99.90;;;;;;7374998;19;20030;-40
2022/11/14 06:35:59;;;;;;;67.85;38.03;;;6.00;99.90;;;;;;7371540;19;20490;-40
2022/11/14 06:38:43;;;;;;;65.55;38.70;;;6.00;99.90;;;;;;7376667;19;20018;-40
2022/11/14 06:41:28;;;;;;;65.70;38.72;;;6.00;99.90;;;;;;7371339;19;20099;-40
2022/11/14 06:44:13;;;;;;;66.05;37.90;;;6.00;99.90;;;;;;7371459;19;20018;-40
2022/11/14 06:46:59;;;;;;;63.75;38.08;;;5.90;99.90;;;;;;7367639;19;20483;-40
2022/11/14 06:49:43;;;;;;;66.63;37.10;;;5.90;99.90;;;;;;7370146;19;20018;-40
2022/11/14 06:52:30;;;;;;;63.70;35.65;;;5.90;99.90;;;;;;7370352;19;20366;-40
2022/11/14 06:55:15;;;;;;;65.93;38.08;;;5.90;99.90;;;;;;7371512;19;20032;-40
2022/11/14 06:58:00;;;;;;;66.00;38.65;;;5.90;99.90;;;;;;7369896;19;20014;-39
2022/11/14 07:00:45;;;;;;;75.63;39.92;;;5.90;99.90;;;;;;7369051;19;20389;-40
2022/11/14 07:03:30;;;;;;;72.60;40.75;;;5.90;99.90;;;;;;7368814;19;20043;-39
2022/11/14 07:06:21;;;;;;;68.10;37.47;;;5.90;99.90;;;;;;7370015;19;20022;-39
2022/11/14 07:09:06;;;;;;;64.57;37.50;;;5.80;99.90;;;;;;7370319;19;20031;-40
2022/11/14 07:11:53;;;;;;;73.47;40.63;;;5.80;99.90;;;;;;7372943;19;20580;-39
2022/11/14 07:14:39;;;;;;;68.90;39.58;;;5.80;99.90;;;;;;7370055;19;20078;-50
2022/11/14 07:17:24;;;;;;;68.28;38.15;;;5.80;99.90;;;;;;7373387;19;20014;-53
2022/11/14 07:20:10;;;;;;;69.90;39.60;;;5.70;99.90;;;;;;7374656;19;20026;-49
2022/11/14 07:22:55;;;;;;;69.97;37.63;;;5.70;99.90;;;;;;7376089;19;20035;-51
2022/11/14 07:25:40;;;;;;;67.25;38.28;;;5.60;99.90;;;;;;7372209;19;20035;-47
2022/11/14 07:28:28;;;;;;;70.20;40.20;;;5.60;99.90;;;;;;7374110;19;20018;-51
2022/11/14 07:31:15;;;;;;;64.68;38.22;;;5.50;99.90;;;;;;7373319;19;20386;-50
2022/11/14 07:34:00;;;;;;;67.22;37.42;;;5.50;99.90;;;;;;7373002;19;20025;-51
2022/11/14 07:36:45;;;;;;;76.55;40.17;;;5.50;99.90;;;;;;7369041;19;20682;-52
2022/11/14 07:39:30;;;;;;;85.72;43.78;;;5.60;99.90;;;;;;7369083;19;20014;-50
2022/11/14 07:42:15;;;;;;;72.65;40.78;;;5.60;99.90;;;;;;7365187;19;21493;-51
2022/11/14 07:45:00;;;;;;;82.88;39.83;;;5.60;99.90;;;;;;7367323;19;20027;-49
2022/11/14 07:47:45;;;;;;;75.95;41.03;;;5.60;99.90;;;;;;7366535;19;20292;-48
2022/11/14 07:50:30;;;;;;;65.07;36.28;;;5.70;99.90;;;;;;7369604;19;20604;-40
2022/11/14 07:53:16;;;;;;;79.75;46.75;;;5.70;99.90;;;;;;7371663;19;20034;-40
2022/11/14 07:56:08;;;;;;;70.65;39.35;;;5.80;99.90;;;;;;7363951;19;20026;-39
2022/11/14 07:58:53;;;;;;;62.60;33.97;;;5.70;99.90;;;;;;7366999;19;20477;-39
2022/11/14 08:01:41;;;;;;;66.13;36.13;;;5.80;99.90;;;;;;7369784;19;20493;-40
2022/11/14 08:04:26;;;;;;;66.00;34.88;;;5.90;99.90;;;;;;7368078;19;20014;-40
2022/11/14 08:07:11;;;;;;;70.10;38.30;;;5.90;99.90;;;;;;7368076;19;20497;-39
2022/11/14 08:09:56;;;;;;;79.28;46.88;;;6.00;99.90;;;;;;7362166;19;20389;-39
2022/11/14 08:12:41;;;;;;;70.63;38.15;;;6.00;99.90;;;;;;7366335;19;20026;-40
2022/11/14 08:15:27;;;;;;;67.22;37.88;;;6.10;99.90;;;;;;7368789;19;20023;-40
2022/11/14 08:18:11;;;;;;;61.25;34.50;;;6.10;99.90;;;;;;7367628;19;20361;-40
2022/11/14 08:20:57;;;;;;;63.85;38.70;;;6.00;99.90;;;;;;7358299;19;20026;-40
2022/11/14 08:23:44;;;;;;;61.13;34.42;;;6.10;99.90;;;;;;7363324;19;20026;-39
2022/11/14 08:26:29;;;;;;;63.13;38.92;;;6.20;99.90;;;;;;7366207;19;20385;-39
2022/11/14 08:29:15;;;;;;;62.03;37.15;;;6.30;99.90;;;;;;7366036;19;20054;-40
2022/11/14 08:31:59;;;;;;;58.90;34.53;;;6.50;99.90;;;;;;7357626;19;20026;-40
2022/11/14 08:34:45;;;;;;;59.90;36.95;;;6.60;99.90;;;;;;7361295;19;20018;-40
2022/11/14 08:37:29;;;;;;;58.25;34.95;;;6.70;99.90;;;;;;7361836;19;20015;-41
2022/11/14 08:40:15;;;;;;;53.60;31.15;;;6.70;99.90;;;;;;7361992;19;20526;-41
2022/11/14 08:43:01;;;;;;;53.95;32.97;;;6.70;99.90;;;;;;7362952;19;20106;-41
2022/11/14 08:45:46;;;;;;;60.42;33.70;;;6.70;99.90;;;;;;7362407;19;20019;-40
2022/11/14 08:48:32;;;;;;;61.75;33.90;;;6.90;99.90;;;;;;7366230;19;20019;-40
2022/11/14 08:51:16;;;;;;;53.58;32.83;;;7.10;99.90;;;;;;7368209;19;20371;-40
2022/11/14 08:54:02;;;;;;;56.00;35.13;;;7.50;99.90;;;;;;7364369;19;20035;-40
2022/11/14 08:56:47;;;;;;;72.55;46.53;;;7.90;99.90;;;;;;7366540;19;20014;-40
2022/11/14 08:59:33;;;;;;;51.55;33.20;;;8.20;99.90;;;;;;7364423;19;20025;-40
2022/11/14 09:02:17;;;;;;;46.88;30.67;;;8.50;99.90;;;;;;7366904;19;20093;-42
2022/11/14 09:05:02;;;;;;;48.22;31.60;;;8.50;99.90;;;;;;7364723;19;20492;-41
2022/11/14 09:07:47;;;;;;;48.78;32.53;;;8.20;99.90;;;;;;7363177;19;20010;-40
2022/11/14 09:10:33;;;;;;;48.50;30.85;;;8.30;99.90;;;;;;7364738;19;20500;-40
2022/11/14 09:13:18;;;;;;;48.15;31.23;;;8.60;99.90;;;;;;7367345;19;20019;-41
2022/11/14 09:16:04;;;;;;;45.08;30.73;;;9.20;99.90;;;;;;7364082;19;20014;-41
2022/11/14 09:18:49;;;;;;;41.70;29.90;;;10.00;99.90;;;;;;7363497;19;20021;-42
2022/11/14 09:21:34;;;;;;;42.83;29.17;;;10.10;99.90;;;;;;7366047;19;20374;-40
2022/11/14 09:24:19;;;;;;;43.95;30.67;;;10.80;99.90;;;;;;7374153;19;20018;-40
2022/11/14 09:27:04;;;;;;;41.67;30.38;;;11.30;99.90;;;;;;7366689;19;20031;-40
2022/11/14 09:29:50;;;;;;;43.63;30.98;;;11.60;99.90;;;;;;7372577;19;20042;-41
2022/11/14 09:32:35;;;;;;;41.13;29.65;;;11.70;99.90;;;;;;7369328;19;20050;-41
2022/11/14 09:35:20;;;;;;;42.10;29.77;;;12.10;99.90;;;;;;7373626;19;20057;-42
2022/11/14 09:38:10;;;;;;;41.95;29.92;;;12.30;99.90;;;;;;7373752;19;20034;-42
2022/11/14 09:41:01;;;;;;;40.03;30.52;;;12.00;99.90;;;;;;7369107;19;20031;-58
2022/11/14 09:44:28;;;;;;;40.33;28.70;;;12.40;99.90;;;;;;7372084;19;20049;-53
2022/11/14 09:47:20;;;;;;;34.97;26.50;;;12.40;99.90;;;;;;7371360;19;20492;-40
2022/11/14 09:50:12;;;;;;;40.80;30.15;;;12.50;99.90;;;;;;7367469;19;20046;-49
2022/11/14 09:53:02;;;;;;;37.47;27.30;;;12.10;99.90;;;;;;7366266;19;20736;-52
2022/11/14 09:55:47;;;;;;;37.85;27.50;;;12.30;99.90;;;;;;7366972;19;20045;-53
2022/11/14 09:58:32;;;;;;;37.40;28.15;;;11.80;99.90;;;;;;7371490;19;20577;-51
2022/11/14 10:01:39;;;;;;;44.50;32.63;;;11.40;99.90;;;;;;7374210;19;20022;-47
2022/11/14 10:04:51;;;;;;;40.78;30.10;;;11.60;99.90;;;;;;7355201;19;20018;-49
2022/11/14 10:08:09;;;;;;;36.90;27.30;;;11.30;99.90;;;;;;7360312;19;20045;-49
2022/11/14 10:11:03;;;;;;;40.22;28.65;;;11.90;99.90;;;;;;7363824;19;20018;-47
2022/11/14 10:14:10;;;;;;;35.97;26.10;;;12.40;99.90;;;;;;7367381;19;20062;-48
2022/11/14 10:17:09;;;;;;;36.67;27.75;;;12.70;99.90;;;;;;7371951;19;20067;-52
2022/11/14 10:20:16;;;;;;;37.25;26.50;;;12.80;99.90;;;;;;7365323;19;20025;-50
2022/11/14 10:23:09;;;;;;;36.33;26.70;;;13.20;99.90;;;;;;7367183;19;20035;-51
2022/11/14 10:26:35;;;;;;;35.85;27.20;;;13.60;99.90;;;;;;7367458;19;20032;-43
2022/11/14 10:29:57;;;;;;;36.03;27.08;;;13.10;99.90;;;;;;7368841;19;20019;-42
2022/11/14 10:33:08;;;;;;;32.90;25.95;;;13.10;99.90;;;;;;7363345;19;20033;-44
2022/11/14 10:36:12;;;;;;;32.38;24.67;;;13.40;99.90;;;;;;7364236;19;20445;-43
2022/11/14 10:39:37;;;;;;;33.65;25.83;;;13.30;99.90;;;;;;7366828;19;20370;-42
2022/11/14 10:42:34;;;;;;;31.20;24.90;;;13.60;99.90;;;;;;7363076;19;20070;-41
2022/11/14 10:45:27;;;;;;;32.28;25.65;;;13.90;99.90;;;;;;7363765;19;20026;-51
2022/11/14 10:48:29;;;;;;;31.27;24.85;;;14.50;99.90;;;;;;7366432;19;20023;-51
2022/11/14 10:51:56;;;;;;;29.08;25.00;;;14.70;99.90;;;;;;7363059;19;20061;-48
2022/11/14 10:54:47;;;;;;;33.53;25.67;;;14.10;99.90;;;;;;7368322;19;20022;-51
2022/11/14 10:57:32;;;;;;;33.70;25.05;;;13.90;99.90;;;;;;7364812;19;20018;-44
2022/11/14 11:00:21;;;;;;;33.20;26.42;;;14.20;99.90;;;;;;7368926;19;20027;-41
2022/11/14 11:03:07;;;;;;;29.83;23.92;;;14.10;99.90;;;;;;7364179;19;20010;-43
2022/11/14 11:05:58;;;;;;;29.58;24.33;;;14.50;99.90;;;;;;7363960;19;20791;-43
2022/11/14 11:11:57;;;;;;;30.65;24.52;;;15.10;99.90;;;;;;7367379;19;20541;-42
2022/11/14 11:14:43;;;;;;;30.65;25.63;;;15.70;99.90;;;;;;7368594;19;20499;-49
2022/11/14 11:17:29;;;;;;;31.27;25.60;;;16.10;99.90;;;;;;7368497;19;20014;-50
2022/11/14 11:20:36;;;;;;;28.85;24.08;;;16.20;99.90;;;;;;7365922;19;20509;-49
2022/11/14 11:23:26;;;;;;;31.42;25.70;;;16.40;99.90;;;;;;7363274;19;20022;-51
2022/11/14 11:26:22;;;;;;;27.85;23.08;;;16.20;99.90;;;;;;7366690;19;20386;-42
2022/11/14 11:29:09;;;;;;;31.10;24.52;;;16.40;99.90;;;;;;7364727;19;20014;-42
2022/11/14 11:31:59;;;;;;;29.38;23.30;;;16.30;99.90;;;;;;7366694;19;20015;-42
2022/11/14 11:34:45;;;;;;;29.75;25.23;;;15.70;99.90;;;;;;7366595;19;20025;-42
2022/11/14 11:37:38;;;;;;;28.08;22.30;;;16.50;99.90;;;;;;7364859;19;20028;-50
2022/11/14 11:40:28;;;;;;;24.75;21.30;;;16.90;99.90;;;;;;7362132;19;20030;-48
2022/11/14 11:43:25;;;;;;;25.77;22.50;;;16.80;99.90;;;;;;7357986;19;20026;-49
2022/11/14 11:46:15;;;;;;;26.50;23.08;;;17.00;99.90;;;;;;7361541;19;20062;-52
2022/11/14 11:49:18;;;;;;;25.75;22.25;;;17.60;99.90;;;;;;7363902;19;20434;-43
2022/11/14 11:52:10;;;;;;;26.27;22.30;;;17.80;99.90;;;;;;7365150;19;20018;-49
2022/11/14 11:55:08;;;;;;;25.60;20.98;;;17.80;99.90;;;;;;7360577;19;20363;-49
2022/11/14 11:58:11;;;;;;;25.38;21.70;;;17.80;99.90;;;;;;7358413;19;20094;-43
2022/11/14 12:00:56;;;;;;;25.33;20.73;;;17.60;99.80;;;;;;7366921;19;20031;-49
2022/11/14 12:03:46;;;;;;;24.73;21.30;;;17.40;99.90;;;;;;7362608;19;20055;-42
2022/11/14 12:06:43;;;;;;;24.13;20.67;;;17.00;99.90;;;;;;7354102;19;20048;-43
2022/11/14 12:09:35;;;;;;;24.40;20.38;;;17.60;99.70;;;;;;7360147;19;20019;-47
2022/11/14 12:12:45;;;;;;;24.17;20.35;;;17.50;99.90;;;;;;7359271;19;20014;-49
2022/11/14 12:15:39;;;;;;;24.58;20.85;;;17.80;99.90;;;;;;7362221;19;20528;-43
2022/11/14 12:18:34;;;;;;;23.35;19.73;;;17.40;99.90;;;;;;7360993;19;20019;-46
2022/11/14 12:21:44;;;;;;;24.25;20.25;;;17.80;99.60;;;;;;7361086;19;20126;-42
2022/11/14 12:24:45;;;;;;;23.92;20.50;;;17.70;99.70;;;;;;7359099;19;20022;-46
2022/11/14 12:28:03;;;;;;;25.13;21.10;;;18.10;97.90;;;;;;7359816;19;20038;-46
2022/11/14 12:30:52;;;;;;;21.23;18.40;;;17.80;98.00;;;;;;7356257;19;20022;-43
2022/11/14 12:33:42;;;;;;;21.67;18.00;;;18.50;96.90;;;;;;7361617;19;20022;-49
2022/11/14 12:36:31;;;;;;;22.67;18.60;;;17.80;96.90;;;;;;7363986;19;20043;-45
2022/11/14 12:39:28;;;;;;;24.52;19.27;;;17.80;98.40;;;;;;7361131;19;20027;-46
2022/11/14 12:42:19;;;;;;;21.38;18.42;;;17.90;96.60;;;;;;7365219;19;20027;-45
2022/11/14 12:45:39;;;;;;;29.13;25.35;;;17.20;98.00;;;;;;7362506;19;20377;-44
2022/11/14 12:48:24;;;;;;;21.67;18.33;;;17.50;96.40;;;;;;7362645;19;20357;-49
2022/11/14 12:51:36;;;;;;;22.08;19.42;;;17.80;97.80;;;;;;7356950;19;20351;-48
2022/11/14 12:54:44;;;;;;;27.02;20.42;;;18.30;96.70;;;;;;7353987;19;20023;-51
2022/11/14 12:57:46;;;;;;;32.05;26.95;;;18.10;96.60;;;;;;7364953;19;20217;-47
2022/11/14 13:00:58;;;;;;;23.05;18.70;;;17.90;94.30;;;;;;7364191;19;20019;-44
2022/11/14 13:04:01;;;;;;;19.70;17.65;;;17.60;95.70;;;;;;7360723;19;20022;-46
2022/11/14 13:07:17;;;;;;;21.75;18.05;;;17.30;97.10;;;;;;7361549;19;20716;-42
2022/11/14 13:10:13;;;;;;;23.58;19.40;;;17.10;97.00;;;;;;7363860;19;20130;-49
2022/11/14 13:22:38;;;;;;;30.38;25.63;;;17.80;97.70;;;;;;7364519;19;20023;-42
2022/11/14 13:25:24;;;;;;;28.27;23.73;;;17.50;96.80;;;;;;7364886;19;20018;-41
2022/11/14 13:28:36;;;;;;;22.20;18.23;;;17.50;97.50;;;;;;7369633;19;20714;-40
2022/11/14 13:31:24;;;;;;;32.75;27.85;;;17.70;96.70;;;;;;7367039;19;20534;-43
2022/11/14 13:34:37;;;;;;;19.55;17.45;;;17.50;97.50;;;;;;7362927;19;20490;-40
2022/11/14 13:37:41;;;;;;;19.55;15.77;;;17.50;95.90;;;;;;7366943;19;20020;-43
2022/11/14 13:40:43;;;;;;;20.98;17.55;;;17.70;97.10;;;;;;7369871;19;21306;-45
2022/11/14 13:43:48;;;;;;;21.25;17.50;;;17.30;97.30;;;;;;7369599;19;20019;-43
2022/11/14 13:46:51;;;;;;;19.83;16.35;;;17.10;98.40;;;;;;7368779;19;20022;-43
2022/11/14 13:50:15;;;;;;;18.00;16.05;;;17.00;97.90;;;;;;7367272;19;20014;-42
2022/11/14 13:53:00;;;;;;;17.35;15.38;;;16.80;97.90;;;;;;7367786;19;20468;-42
2022/11/14 13:55:51;;;;;;;18.50;15.75;;;16.30;98.50;;;;;;7369542;19;20026;-42
2022/11/14 13:59:05;;;;;;;18.73;15.57;;;16.20;98.90;;;;;;7367708;19;20041;-43
2022/11/14 14:02:09;;;;;;;18.05;14.77;;;16.50;98.70;;;;;;7361272;19;20120;-42
2022/11/14 14:05:15;;;;;;;17.42;14.63;;;16.60;99.00;;;;;;7366142;19;20527;-42
2022/11/14 14:08:20;;;;;;;18.42;15.88;;;16.60;99.30;;;;;;7362870;19;20028;-43
2022/11/14 14:11:17;;;;;;;15.98;14.15;;;16.30;99.00;;;;;;7365992;19;20102;-44
2022/11/14 14:14:14;;;;;;;16.40;14.50;;;16.50;98.70;;;;;;7366437;19;20074;-45
2022/11/14 14:17:22;;;;;;;16.70;14.05;;;16.20;99.60;;;;;;7367923;19;20114;-46
2022/11/14 14:20:29;;;;;;;20.45;16.05;;;16.10;99.50;;;;;;7365932;19;21075;-42
2022/11/14 14:23:44;;;;;;;16.25;13.40;;;15.90;99.90;;;;;;7365384;19;20034;-44
2022/11/14 14:26:41;;;;;;;16.48;13.70;;;15.80;99.80;;;;;;7362139;19;20027;-42
2022/11/14 14:30:21;;;;;;;15.70;13.95;;;15.60;99.90;;;;;;7368937;19;20061;-49
2022/11/14 14:33:06;;;;;;;16.73;14.98;;;15.50;99.90;;;;;;7361914;19;20097;-50
2022/11/14 14:35:52;;;;;;;16.35;14.40;;;14.60;99.90;;;;;;7369458;19;20035;-49
2022/11/14 14:38:38;;;;;;;17.98;14.75;;;13.70;99.90;;;;;;7361669;19;20014;-42
2022/11/14 14:41:23;;;;;;;18.10;14.77;;;12.90;99.90;;;;;;7362234;19;20090;-43